aviador You're here:

KELN Decoded Metar

ELLENSBURG in WA, USA
Report Time2017-03-28 05:53:00
UTC Time2017-03-28 06:08:23
Flight Rules vfr VFR
Wind280° at 03 kt
W.Decomp.*RWY 25: 2.9 kt HW 0.7 kt RCW
RWY 29: 2.7 kt HW 1.3 kt LCW
W.Rank280° ranks 10
Current wind is below 280° avg. (7.7)
Visibility9999 m
Phenomena:N/A
Clouds:N/A
Expected CloudBase > 2,000 ft AGL from Temp-Dew spread
CeilingNone
Temp06°C (ISA -6)
Dew Point01°C (71% RH)
AAT3.1°C
QNH1022 hPa
Density Alt820 ft
Elevation1,703 ft
Report Wrong Elevation
Raw Report
METAR KELN 280553Z AUTO 28003KT 10SM CLR 06/01 A3019 RMK AO2 SLP227
T00560006 10122 20050 53017=

Extra information for KELN:More info

Metar Taf Metar & Taf Last 4 Metars F.Rules Stats Wind Profile Meteogram Temp Stats Airport Information Weather charts Add Link Nearby VenuesMetar ALERT Operation Metar Decoded Social comments

AIRNAV info for KELN